createdAt,value
2017-11-03T00:00:43.254Z,0
2017-11-03T00:01:43.916Z,0
2017-11-03T00:02:43.344Z,0
2017-11-03T00:03:43.635Z,0
2017-11-03T00:04:43.986Z,0
2017-11-03T00:05:43.675Z,0
2017-11-03T00:06:44.017Z,0
2017-11-03T00:07:43.721Z,0
2017-11-03T00:08:44.064Z,0
2017-11-03T00:09:43.774Z,0
2017-11-03T00:10:43.458Z,0
2017-11-03T00:11:43.801Z,0
2017-11-03T00:12:43.499Z,0
2017-11-03T00:13:43.524Z,0
2017-11-03T00:14:43.852Z,0
2017-11-03T00:15:44.200Z,0
2017-11-03T00:16:43.893Z,0
2017-11-03T00:17:43.899Z,0
2017-11-03T00:18:43.937Z,0
2017-11-03T00:19:43.630Z,0
2017-11-03T00:20:43.969Z,0
2017-11-03T00:21:43.348Z,0
2017-11-03T00:22:44.013Z,0
2017-11-03T00:23:44.371Z,0
2017-11-03T00:24:44.377Z,0
2017-11-03T00:25:44.084Z,0
2017-11-03T00:26:43.770Z,0
2017-11-03T00:27:44.120Z,0
2017-11-03T00:28:44.468Z,0
2017-11-03T00:29:44.464Z,0
2017-11-03T00:30:43.844Z,0
2017-11-03T00:31:44.206Z,0
2017-11-03T00:32:44.206Z,0
2017-11-03T00:33:43.956Z,0
2017-11-03T00:34:43.925Z,0
2017-11-03T00:35:43.955Z,0
2017-11-03T00:36:44.612Z,0
2017-11-03T00:37:44.308Z,0
2017-11-03T00:38:43.686Z,0
2017-11-03T00:39:44.361Z,0
2017-11-03T00:40:44.370Z,0
2017-11-03T00:41:44.388Z,0
2017-11-03T00:42:44.082Z,0
2017-11-03T00:43:44.434Z,0
2017-11-03T00:44:44.449Z,0
2017-11-03T00:45:44.791Z,0
2017-11-03T00:46:43.846Z,0
2017-11-03T00:47:44.514Z,0
2017-11-03T00:48:44.903Z,0
2017-11-03T00:49:44.244Z,0
2017-11-03T00:50:44.252Z,0
2017-11-03T00:51:44.596Z,0
2017-11-03T00:52:44.298Z,0
2017-11-03T00:53:44.959Z,0
2017-11-03T00:54:44.648Z,0
2017-11-03T00:55:44.665Z,0
2017-11-03T00:56:44.691Z,0
2017-11-03T00:57:44.391Z,0
2017-11-03T00:58:44.429Z,0
2017-11-03T00:59:44.753Z,0
2017-11-03T01:00:45.096Z,0
2017-11-03T01:01:44.471Z,0
2017-11-03T01:02:44.810Z,0
2017-11-03T01:03:44.831Z,0
2017-11-03T01:04:44.852Z,0
2017-11-03T01:05:45.218Z,0
2017-11-03T01:06:45.264Z,0
2017-11-03T01:07:45.254Z,0
2017-11-03T01:08:45.257Z,0
2017-11-03T01:09:44.962Z,0
2017-11-03T01:10:44.979Z,0
2017-11-03T01:11:45.349Z,0
2017-11-03T01:12:44.699Z,0
2017-11-03T01:13:45.045Z,0
2017-11-03T01:14:45.060Z,0
2017-11-03T01:15:45.429Z,0
2017-11-03T01:16:45.123Z,0
2017-11-03T01:17:45.129Z,0
2017-11-03T01:18:44.819Z,0
2017-11-03T01:19:45.488Z,0
2017-11-03T01:20:45.503Z,0
2017-11-03T01:21:45.253Z,0
2017-11-03T01:22:45.215Z,0
2017-11-03T01:23:44.597Z,0
2017-11-03T01:24:45.588Z,0
2017-11-03T01:25:45.596Z,0
2017-11-03T01:26:45.648Z,0
2017-11-03T01:27:44.996Z,0
2017-11-03T01:28:45.022Z,0
2017-11-03T01:29:45.365Z,0
2017-11-03T01:30:45.700Z,0
2017-11-03T01:31:45.085Z,0
2017-11-03T01:32:45.116Z,0
2017-11-03T01:33:45.118Z,0
2017-11-03T01:34:45.459Z,0
2017-11-03T01:35:45.472Z,0
2017-11-03T01:36:45.223Z,0
2017-11-03T01:37:45.519Z,0
2017-11-03T01:38:45.868Z,0
2017-11-03T01:39:45.556Z,0
2017-11-03T01:40:45.900Z,0
2017-11-03T01:41:45.269Z,0
2017-11-03T01:42:45.631Z,0
2017-11-03T01:43:45.638Z,0
2017-11-03T01:44:45.011Z,0
2017-11-03T01:45:45.997Z,0
2017-11-03T01:46:45.729Z,0
2017-11-03T01:47:45.400Z,0
2017-11-03T01:48:45.412Z,0
2017-11-03T01:49:45.756Z,0
2017-11-03T01:50:45.774Z,0
2017-11-03T01:51:45.841Z,0
2017-11-03T01:52:45.512Z,0
2017-11-03T01:53:45.835Z,0
2017-11-03T01:54:45.530Z,0
2017-11-03T01:55:45.878Z,0
2017-11-03T01:56:46.236Z,0
2017-11-03T01:57:45.619Z,0
2017-11-03T01:58:46.265Z,0
2017-11-03T01:59:46.283Z,0
2017-11-03T02:00:45.975Z,0
2017-11-03T02:01:45.681Z,0
2017-11-03T02:02:46.033Z,0
2017-11-03T02:03:45.710Z,0
2017-11-03T02:04:46.069Z,0
2017-11-03T02:05:46.071Z,0
2017-11-03T02:06:46.138Z,0
2017-11-03T02:07:46.437Z,0
2017-11-03T02:08:46.456Z,0
2017-11-03T02:09:45.833Z,0
2017-11-03T02:10:45.849Z,0
2017-11-03T02:11:45.865Z,0
2017-11-03T02:12:46.532Z,0
2017-11-03T02:13:46.549Z,0
2017-11-03T02:14:45.935Z,0
2017-11-03T02:15:45.952Z,0
2017-11-03T02:16:45.965Z,0
2017-11-03T02:17:46.317Z,0
2017-11-03T02:18:46.008Z,0
2017-11-03T02:19:46.347Z,0
2017-11-03T02:20:46.049Z,0
2017-11-03T02:21:46.385Z,0
2017-11-03T02:22:46.408Z,0
2017-11-03T02:23:46.432Z,0
2017-11-03T02:24:46.125Z,0
2017-11-03T02:25:46.159Z,0
2017-11-03T02:26:46.161Z,0
2017-11-03T02:27:46.843Z,0
2017-11-03T02:28:46.524Z,0
2017-11-03T02:29:46.242Z,0
2017-11-03T02:30:46.242Z,0
2017-11-03T02:31:46.590Z,0
2017-11-03T02:32:46.612Z,0
2017-11-03T02:33:46.300Z,0
2017-11-03T02:34:46.966Z,0
2017-11-03T02:35:46.337Z,0
2017-11-03T02:36:46.681Z,0
2017-11-03T02:37:46.059Z,0
2017-11-03T02:38:47.039Z,0
2017-11-03T02:39:47.086Z,0
2017-11-03T02:40:46.173Z,0
2017-11-03T02:41:46.793Z,0
2017-11-03T02:42:46.817Z,0
2017-11-03T02:43:47.146Z,0
2017-11-03T02:44:46.845Z,0
2017-11-03T02:45:46.862Z,0
2017-11-03T02:46:46.877Z,0
2017-11-03T02:47:46.580Z,0
2017-11-03T02:48:46.278Z,0
2017-11-03T02:49:47.266Z,0
2017-11-03T02:50:47.287Z,0
2017-11-03T02:51:46.660Z,0
2017-11-03T02:52:47.004Z,0
2017-11-03T02:53:47.022Z,0
2017-11-03T02:54:46.725Z,0
2017-11-03T02:55:46.792Z,0
2017-11-03T02:56:47.406Z,0
2017-11-03T02:57:46.777Z,0
2017-11-03T02:58:47.448Z,0
2017-11-03T02:59:47.141Z,0
2017-11-03T03:00:47.158Z,0
2017-11-03T03:01:46.855Z,0
2017-11-03T03:02:46.556Z,0
2017-11-03T03:03:47.218Z,0
2017-11-03T03:04:47.241Z,0
2017-11-03T03:05:47.297Z,0
2017-11-03T03:06:46.642Z,0
2017-11-03T03:07:47.296Z,0
2017-11-03T03:08:47.317Z,0
2017-11-03T03:09:47.338Z,0
2017-11-03T03:10:47.737Z,0
2017-11-03T03:11:46.740Z,0
2017-11-03T03:12:47.404Z,0
2017-11-03T03:13:47.094Z,0
2017-11-03T03:14:46.790Z,0
2017-11-03T03:15:47.458Z,0
2017-11-03T03:16:47.151Z,0
2017-11-03T03:17:47.819Z,0
2017-11-03T03:18:47.515Z,0
2017-11-03T03:19:47.861Z,0
2017-11-03T03:20:47.884Z,0
2017-11-03T03:21:47.907Z,0
2017-11-03T03:22:47.595Z,0
2017-11-03T03:23:47.292Z,0
2017-11-03T03:24:47.962Z,0
2017-11-03T03:25:47.343Z,0
2017-11-03T03:26:47.675Z,0
2017-11-03T03:27:47.366Z,0
2017-11-03T03:28:47.130Z,0
2017-11-03T03:29:47.289Z,0
2017-11-03T03:30:48.073Z,0
2017-11-03T03:31:47.776Z,0
2017-11-03T03:32:48.109Z,0
2017-11-03T03:33:47.807Z,0
2017-11-03T03:34:47.834Z,0
2017-11-03T03:35:47.522Z,0
2017-11-03T03:36:47.868Z,0
2017-11-03T03:37:48.210Z,0
2017-11-03T03:38:47.582Z,0
2017-11-03T03:39:47.923Z,0
2017-11-03T03:40:47.977Z,0
2017-11-03T03:41:47.322Z,0
2017-11-03T03:42:47.987Z,0
2017-11-03T03:43:48.336Z,0
2017-11-03T03:44:47.708Z,0
2017-11-03T03:45:48.362Z,0
2017-11-03T03:46:47.412Z,0
2017-11-03T03:47:48.136Z,0
2017-11-03T03:48:48.095Z,0
2017-11-03T03:49:48.117Z,0
2017-11-03T03:50:47.813Z,0
2017-11-03T03:51:48.165Z,0
2017-11-03T03:52:47.854Z,0
2017-11-03T03:53:48.200Z,0
2017-11-03T03:54:48.212Z,0
2017-11-03T03:55:48.245Z,0
2017-11-03T03:56:48.250Z,0
2017-11-03T03:57:48.596Z,0
2017-11-03T03:58:47.967Z,0
2017-11-03T03:59:48.306Z,0
2017-11-03T04:00:48.328Z,0
2017-11-03T04:01:48.349Z,0
2017-11-03T04:02:48.367Z,0
2017-11-03T04:03:48.730Z,0
2017-11-03T04:04:48.411Z,0
2017-11-03T04:05:48.424Z,0
2017-11-03T04:06:48.493Z,0
2017-11-03T04:07:48.487Z,0
2017-11-03T04:08:48.482Z,0
2017-11-03T04:09:48.506Z,0
2017-11-03T04:10:48.530Z,0
2017-11-03T04:11:48.544Z,0
2017-11-03T04:12:48.572Z,0
2017-11-03T04:13:48.588Z,0
2017-11-03T04:14:48.606Z,0
2017-11-03T04:15:48.302Z,0
2017-11-03T04:16:48.645Z,0
2017-11-03T04:17:48.684Z,0
2017-11-03T04:18:48.693Z,0
2017-11-03T04:19:49.022Z,0
2017-11-03T04:20:48.724Z,0
2017-11-03T04:21:48.791Z,0
2017-11-03T04:22:48.452Z,0
2017-11-03T04:23:48.456Z,0
2017-11-03T04:24:48.480Z,0
2017-11-03T04:25:49.135Z,0
2017-11-03T04:26:49.147Z,0
2017-11-03T04:27:48.532Z,0
2017-11-03T04:28:49.202Z,0
2017-11-03T04:29:48.893Z,0
2017-11-03T04:30:48.908Z,0
2017-11-03T04:31:48.609Z,0
2017-11-03T04:32:48.627Z,0
2017-11-03T04:33:49.303Z,0
2017-11-03T04:34:48.670Z,0
2017-11-03T04:35:48.361Z,0
2017-11-03T04:36:48.704Z,0
2017-11-03T04:37:49.364Z,0
2017-11-03T04:38:49.116Z,0
2017-11-03T04:39:48.770Z,0
2017-11-03T04:40:49.115Z,0
2017-11-03T04:41:49.131Z,0
2017-11-03T04:42:49.139Z,0
2017-11-03T04:43:49.166Z,0
2017-11-03T04:44:48.538Z,0
2017-11-03T04:45:49.206Z,0
2017-11-03T04:46:48.578Z,0
2017-11-03T04:47:49.246Z,0
2017-11-03T04:48:49.268Z,0
2017-11-03T04:49:49.602Z,0
2017-11-03T04:50:49.302Z,0
2017-11-03T04:51:48.997Z,0
2017-11-03T04:52:49.340Z,0
2017-11-03T04:53:49.409Z,0
2017-11-03T04:54:49.057Z,0
2017-11-03T04:55:49.404Z,0
2017-11-03T04:56:49.427Z,0
2017-11-03T04:57:49.759Z,0
2017-11-03T04:58:49.454Z,0
2017-11-03T04:59:49.150Z,0
2017-11-03T05:00:49.515Z,0
2017-11-03T05:01:49.192Z,0
2017-11-03T05:02:49.227Z,0
2017-11-03T05:03:49.896Z,0
2017-11-03T05:04:49.562Z,0
2017-11-03T05:05:49.595Z,0
2017-11-03T05:06:48.965Z,0
2017-11-03T05:07:48.983Z,0
2017-11-03T05:08:49.700Z,0
2017-11-03T05:09:49.668Z,0
2017-11-03T05:10:49.689Z,0
2017-11-03T05:11:50.031Z,0
2017-11-03T05:12:49.726Z,0
2017-11-03T05:13:50.069Z,0
2017-11-03T05:14:49.800Z,0
2017-11-03T05:15:49.139Z,0
2017-11-03T05:16:49.799Z,0
2017-11-03T05:17:49.499Z,0
2017-11-03T05:18:49.544Z,0
2017-11-03T05:19:49.869Z,0
2017-11-03T05:20:49.561Z,0
2017-11-03T05:21:50.344Z,0
2017-11-03T05:22:49.932Z,0
2017-11-03T05:23:49.986Z,0
2017-11-03T05:24:49.633Z,0
2017-11-03T05:25:50.340Z,0
2017-11-03T05:26:50.004Z,0
2017-11-03T05:27:50.013Z,0
2017-11-03T05:28:49.709Z,0
2017-11-03T05:29:50.051Z,0
2017-11-03T05:30:49.750Z,0
2017-11-03T05:31:50.410Z,0
2017-11-03T05:32:50.112Z,0
2017-11-03T05:33:50.130Z,0
2017-11-03T05:34:49.839Z,0
2017-11-03T05:35:50.174Z,0
2017-11-03T05:36:49.546Z,0
2017-11-03T05:37:50.539Z,0
2017-11-03T05:38:50.228Z,0
2017-11-03T05:39:49.979Z,4
2017-11-03T05:40:50.272Z,4
2017-11-03T05:41:50.615Z,0
2017-11-03T05:42:49.991Z,4
2017-11-03T05:43:50.334Z,4
2017-11-03T05:44:50.082Z,4
2017-11-03T05:45:50.689Z,4
2017-11-03T05:46:50.727Z,8
2017-11-03T05:47:49.768Z,4
2017-11-03T05:48:50.107Z,4
2017-11-03T05:49:50.765Z,4
2017-11-03T05:50:50.800Z,12
2017-11-03T05:51:50.804Z,12
2017-11-03T05:52:50.833Z,12
2017-11-03T05:53:50.849Z,16
2017-11-03T05:54:49.902Z,16
2017-11-03T05:55:50.576Z,20
2017-11-03T05:56:50.929Z,20
2017-11-03T05:57:50.603Z,28
2017-11-03T05:58:50.631Z,28
2017-11-03T05:59:50.709Z,28
2017-11-03T06:00:50.344Z,32
2017-11-03T06:01:50.684Z,32
2017-11-03T06:02:50.062Z,36
2017-11-03T06:03:51.048Z,48
2017-11-03T06:04:50.428Z,56
2017-11-03T06:05:51.089Z,56
2017-11-03T06:06:50.461Z,52
2017-11-03T06:07:50.485Z,52
2017-11-03T06:08:50.822Z,52
2017-11-03T06:09:50.201Z,60
2017-11-03T06:10:51.192Z,68
2017-11-03T06:11:50.592Z,76
2017-11-03T06:12:50.903Z,80
2017-11-03T06:13:50.601Z,88
2017-11-03T06:14:51.273Z,88
2017-11-03T06:15:51.292Z,92
2017-11-03T06:16:50.986Z,88
2017-11-03T06:17:50.363Z,88
2017-11-03T06:18:50.752Z,96
2017-11-03T06:19:51.046Z,108
2017-11-03T06:20:51.385Z,116
2017-11-03T06:21:51.406Z,124
2017-11-03T06:22:50.789Z,136
2017-11-03T06:23:50.801Z,148
2017-11-03T06:24:51.167Z,160
2017-11-03T06:25:50.842Z,180
2017-11-03T06:26:50.865Z,204
2017-11-03T06:27:51.203Z,232
2017-11-03T06:28:51.748Z,248
2017-11-03T06:29:51.279Z,252
2017-11-03T06:30:50.945Z,244
2017-11-03T06:31:51.608Z,232
2017-11-03T06:32:51.307Z,232
2017-11-03T06:33:51.378Z,240
2017-11-03T06:34:51.670Z,252
2017-11-03T06:35:51.377Z,256
2017-11-03T06:36:51.065Z,260
2017-11-03T06:37:51.407Z,268
2017-11-03T06:38:51.754Z,276
2017-11-03T06:39:51.784Z,268
2017-11-03T06:40:51.474Z,276
2017-11-03T06:41:50.843Z,300
2017-11-03T06:42:51.205Z,316
2017-11-03T06:43:51.204Z,324
2017-11-03T06:44:50.906Z,316
2017-11-03T06:45:51.589Z,320
2017-11-03T06:46:51.289Z,312
2017-11-03T06:47:51.943Z,296
2017-11-03T06:48:51.633Z,276
2017-11-03T06:49:51.712Z,288
2017-11-03T06:50:51.034Z,332
2017-11-03T06:51:51.362Z,392
2017-11-03T06:52:51.391Z,444
2017-11-03T06:53:51.726Z,464
2017-11-03T06:54:51.104Z,484
2017-11-03T06:55:51.773Z,500
2017-11-03T06:56:51.786Z,496
2017-11-03T06:57:51.820Z,488
2017-11-03T06:58:51.843Z,484
2017-11-03T06:59:52.181Z,512
2017-11-03T07:00:52.189Z,560
2017-11-03T07:01:51.892Z,596
2017-11-03T07:02:51.914Z,616
2017-11-03T07:03:51.928Z,624
2017-11-03T07:04:52.275Z,640
2017-11-03T07:05:51.980Z,680
2017-11-03T07:06:51.994Z,748
2017-11-03T07:07:51.745Z,820
2017-11-03T07:08:52.078Z,884
2017-11-03T07:09:52.369Z,936
2017-11-03T07:10:52.401Z,932
2017-11-03T07:11:52.100Z,864
2017-11-03T07:12:51.788Z,788
2017-11-03T07:13:52.454Z,764
2017-11-03T07:14:51.837Z,784
2017-11-03T07:15:51.849Z,812
2017-11-03T07:16:52.227Z,852
2017-11-03T07:17:51.899Z,900
2017-11-03T07:18:52.555Z,928
2017-11-03T07:19:52.588Z,952
2017-11-03T07:20:52.281Z,964
2017-11-03T07:21:52.304Z,932
2017-11-03T07:22:52.320Z,848
2017-11-03T07:23:52.015Z,744
2017-11-03T07:24:52.684Z,672
2017-11-03T07:25:52.063Z,656
2017-11-03T07:26:52.125Z,664
2017-11-03T07:27:52.094Z,656
2017-11-03T07:28:52.758Z,640
2017-11-03T07:29:52.786Z,628
2017-11-03T07:30:52.156Z,628
2017-11-03T07:31:52.504Z,656
2017-11-03T07:32:52.517Z,688
2017-11-03T07:33:52.222Z,756
2017-11-03T07:34:52.259Z,816
2017-11-03T07:35:52.582Z,828
2017-11-03T07:36:52.606Z,800
2017-11-03T07:37:52.966Z,796
2017-11-03T07:38:52.643Z,796
2017-11-03T07:39:52.659Z,836
2017-11-03T07:40:53.008Z,920
2017-11-03T07:41:52.767Z,1032
2017-11-03T07:42:53.045Z,1160
2017-11-03T07:43:52.102Z,1244
2017-11-03T07:44:52.762Z,1388
2017-11-03T07:45:52.788Z,1608
2017-11-03T07:46:52.804Z,1820
2017-11-03T07:47:53.160Z,2012
2017-11-03T07:48:52.525Z,2204
2017-11-03T07:49:52.545Z,2356
2017-11-03T07:50:52.897Z,2396
2017-11-03T07:51:52.906Z,2348
2017-11-03T07:52:52.934Z,2296
2017-11-03T07:53:53.296Z,2212
2017-11-03T07:54:52.974Z,2116
2017-11-03T07:55:52.997Z,2004
2017-11-03T07:56:52.691Z,1964
2017-11-03T07:57:52.730Z,2040
2017-11-03T07:58:53.372Z,2092
2017-11-03T07:59:53.119Z,2052
2017-11-03T08:00:53.098Z,1976
2017-11-03T08:01:53.438Z,1912
2017-11-03T08:02:53.142Z,1868
2017-11-03T08:03:53.158Z,1792
2017-11-03T08:04:52.851Z,1704
2017-11-03T08:05:52.551Z,1640
2017-11-03T08:06:52.899Z,1616
2017-11-03T08:07:52.916Z,1632
2017-11-03T08:08:53.266Z,1688
2017-11-03T08:09:52.967Z,1772
2017-11-03T08:10:53.304Z,1792
2017-11-03T08:11:53.013Z,1804
2017-11-03T08:12:53.346Z,1840
2017-11-03T08:13:53.689Z,1884
2017-11-03T08:14:53.382Z,1868
2017-11-03T08:15:53.409Z,1792
2017-11-03T08:16:53.104Z,1716
2017-11-03T08:17:53.446Z,1700
2017-11-03T08:18:53.837Z,1664
2017-11-03T08:19:53.159Z,1620
2017-11-03T08:20:53.829Z,1596
2017-11-03T08:21:53.530Z,1556
2017-11-03T08:22:53.876Z,1528
2017-11-03T08:23:53.909Z,1512
2017-11-03T08:24:53.266Z,1508
2017-11-03T08:25:53.937Z,1512
2017-11-03T08:26:53.627Z,1536
2017-11-03T08:27:53.329Z,1560
2017-11-03T08:28:54.048Z,1572
2017-11-03T08:29:53.689Z,1588
2017-11-03T08:30:54.032Z,1540
2017-11-03T08:31:53.740Z,1492
2017-11-03T08:32:53.435Z,1448
2017-11-03T08:33:53.460Z,1436
2017-11-03T08:34:53.792Z,1408
2017-11-03T08:35:53.844Z,1376
2017-11-03T08:36:53.195Z,1384
2017-11-03T08:37:53.538Z,1412
2017-11-03T08:38:53.878Z,1452
2017-11-03T08:39:53.596Z,1560
2017-11-03T08:40:53.918Z,1760
2017-11-03T08:41:53.617Z,2036
2017-11-03T08:42:53.639Z,2192
2017-11-03T08:43:54.356Z,2104
2017-11-03T08:44:54.331Z,1940
2017-11-03T08:45:54.028Z,1904
2017-11-03T08:46:54.038Z,1980
2017-11-03T08:47:53.788Z,2124
2017-11-03T08:48:54.400Z,2284
2017-11-03T08:49:54.114Z,2456
2017-11-03T08:50:54.126Z,2708
2017-11-03T08:51:53.824Z,2996
2017-11-03T08:52:54.165Z,3196
2017-11-03T08:53:54.192Z,3420
2017-11-03T08:54:53.880Z,3808
2017-11-03T08:55:54.546Z,4256
2017-11-03T08:56:53.598Z,4504
2017-11-03T08:57:54.265Z,4508
2017-11-03T08:58:54.296Z,4372
2017-11-03T08:59:54.307Z,4224
2017-11-03T09:00:54.654Z,4104
2017-11-03T09:01:54.024Z,3980
2017-11-03T09:02:54.420Z,3756
2017-11-03T09:03:54.705Z,3540
2017-11-03T09:04:54.086Z,3460
2017-11-03T09:05:54.429Z,3516
2017-11-03T09:06:54.450Z,3604
2017-11-03T09:07:54.143Z,3612
2017-11-03T09:08:54.838Z,3492
2017-11-03T09:09:53.863Z,3292
2017-11-03T09:10:54.223Z,3056
2017-11-03T09:11:54.868Z,2824
2017-11-03T09:12:54.570Z,2648
2017-11-03T09:13:54.273Z,2548
2017-11-03T09:14:54.934Z,2528
2017-11-03T09:15:54.312Z,2532
2017-11-03T09:16:54.982Z,2520
2017-11-03T09:17:54.673Z,2584
2017-11-03T09:18:54.699Z,2752
2017-11-03T09:19:54.867Z,2948
2017-11-03T09:20:54.745Z,3128
2017-11-03T09:21:54.111Z,3392
2017-11-03T09:22:55.099Z,3736
2017-11-03T09:23:54.787Z,3924
2017-11-03T09:24:54.490Z,3980
2017-11-03T09:25:55.155Z,3900
2017-11-03T09:26:54.860Z,3716
2017-11-03T09:27:54.556Z,3412
2017-11-03T09:28:54.597Z,3080
2017-11-03T09:29:54.919Z,2760
2017-11-03T09:30:54.623Z,2544
2017-11-03T09:31:54.958Z,2456
2017-11-03T09:32:55.307Z,2556
2017-11-03T09:33:54.685Z,2768
2017-11-03T09:34:55.345Z,3004
2017-11-03T09:35:54.768Z,3236
2017-11-03T09:36:55.064Z,3460
2017-11-03T09:37:55.089Z,3532
2017-11-03T09:38:54.785Z,3500
2017-11-03T09:39:55.159Z,3512
2017-11-03T09:40:54.508Z,3584
2017-11-03T09:41:55.179Z,3636
2017-11-03T09:42:55.520Z,3680
2017-11-03T09:43:54.892Z,3696
2017-11-03T09:44:55.239Z,3672
2017-11-03T09:45:54.933Z,3604
2017-11-03T09:46:55.280Z,3524
2017-11-03T09:47:55.616Z,3540
2017-11-03T09:48:55.317Z,3452
2017-11-03T09:49:55.017Z,3424
2017-11-03T09:50:55.408Z,3336
2017-11-03T09:51:55.064Z,3232
2017-11-03T09:52:54.757Z,3128
2017-11-03T09:53:54.786Z,3056
2017-11-03T09:54:55.125Z,2976
2017-11-03T09:55:55.458Z,2872
2017-11-03T09:56:55.499Z,2896
2017-11-03T09:57:55.184Z,2952
2017-11-03T09:58:55.202Z,2904
2017-11-03T09:59:55.869Z,2904
2017-11-03T10:00:54.930Z,2872
2017-11-03T10:01:55.909Z,2736
2017-11-03T10:02:55.295Z,2496
2017-11-03T10:03:55.637Z,2364
2017-11-03T10:04:55.331Z,2344
2017-11-03T10:05:56.020Z,2416
2017-11-03T10:06:55.052Z,2532
2017-11-03T10:07:55.720Z,2736
2017-11-03T10:08:56.114Z,2952
2017-11-03T10:09:55.759Z,3180
2017-11-03T10:10:55.783Z,3492
2017-11-03T10:11:55.480Z,3808
2017-11-03T10:12:55.505Z,4116
2017-11-03T10:13:55.871Z,4444
2017-11-03T10:14:56.189Z,4556
2017-11-03T10:15:55.245Z,4460
2017-11-03T10:16:55.909Z,4432
2017-11-03T10:17:55.626Z,4464
2017-11-03T10:18:55.635Z,4556
2017-11-03T10:19:55.980Z,4396
2017-11-03T10:20:55.351Z,4172
2017-11-03T10:21:56.347Z,4136
2017-11-03T10:22:56.046Z,4268
2017-11-03T10:23:55.758Z,4400
2017-11-03T10:24:56.081Z,4456
2017-11-03T10:25:56.437Z,4408
2017-11-03T10:26:56.136Z,4428
2017-11-03T10:27:56.197Z,4384
2017-11-03T10:28:56.500Z,4240
2017-11-03T10:29:56.201Z,4136
2017-11-03T10:30:56.208Z,4096
2017-11-03T10:31:56.563Z,3976
2017-11-03T10:32:56.572Z,3796
2017-11-03T10:33:56.606Z,3644
2017-11-03T10:34:56.298Z,3496
2017-11-03T10:35:55.999Z,3428
2017-11-03T10:36:56.016Z,3440
2017-11-03T10:37:56.687Z,3484
2017-11-03T10:38:56.383Z,3556
2017-11-03T10:39:56.089Z,3584
2017-11-03T10:40:55.784Z,3612
2017-11-03T10:41:56.773Z,3760
2017-11-03T10:42:56.151Z,3976
2017-11-03T10:43:56.846Z,4220
2017-11-03T10:44:56.194Z,3984
2017-11-03T10:45:56.588Z,3712
2017-11-03T10:46:56.560Z,3452
2017-11-03T10:47:56.573Z,3360
2017-11-03T10:48:56.917Z,3400
2017-11-03T10:49:56.939Z,3580
2017-11-03T10:50:56.961Z,3848
2017-11-03T10:51:56.660Z,4172
2017-11-03T10:52:56.702Z,4504
2017-11-03T10:53:56.710Z,4764
2017-11-03T10:54:56.730Z,5084
2017-11-03T10:55:57.072Z,5624
2017-11-03T10:56:56.783Z,6376
2017-11-03T10:57:56.802Z,7272
2017-11-03T10:58:56.489Z,8100
2017-11-03T10:59:56.508Z,9028
2017-11-03T11:00:56.850Z,10236
2017-11-03T11:01:56.607Z,11656
2017-11-03T11:02:56.896Z,12936
2017-11-03T11:03:56.591Z,10952
2017-11-03T11:04:56.939Z,10160
2017-11-03T11:05:56.955Z,10188
2017-11-03T11:06:56.336Z,9616
2017-11-03T11:07:56.358Z,9496
2017-11-03T11:08:56.717Z,8932
2017-11-03T11:09:56.722Z,7844
2017-11-03T11:10:57.394Z,7328
2017-11-03T11:11:57.089Z,7252
2017-11-03T11:12:56.805Z,7360
2017-11-03T11:13:56.813Z,7880
2017-11-03T11:14:57.156Z,8460
2017-11-03T11:15:57.179Z,10076
2017-11-03T11:16:56.932Z,9860
2017-11-03T11:17:56.908Z,10168
2017-11-03T11:18:57.248Z,11620
2017-11-03T11:19:56.964Z,14240
2017-11-03T11:20:57.289Z,18688
2017-11-03T11:21:57.315Z,14656
2017-11-03T11:22:57.012Z,13512
2017-11-03T11:23:56.714Z,12808
2017-11-03T11:24:57.377Z,13124
2017-11-03T11:25:57.726Z,13072
2017-11-03T11:26:57.441Z,11992
2017-11-03T11:27:57.447Z,12148
2017-11-03T11:28:57.471Z,11396
2017-11-03T11:29:57.490Z,11000
2017-11-03T11:30:57.511Z,11344
2017-11-03T11:31:57.540Z,11548
2017-11-03T11:32:57.561Z,11396
2017-11-03T11:33:57.585Z,14036
2017-11-03T11:34:57.932Z,13480
2017-11-03T11:35:57.636Z,13732
2017-11-03T11:36:57.985Z,15360
2017-11-03T11:37:57.678Z,16128
2017-11-03T11:38:57.387Z,18720
2017-11-03T11:39:57.729Z,20256
2017-11-03T11:40:58.082Z,48768
2017-11-03T11:41:58.092Z,24224
2017-11-03T11:42:57.807Z,18912
2017-11-03T11:43:57.816Z,19648
2017-11-03T11:44:57.846Z,15624
2017-11-03T11:45:57.544Z,15656
2017-11-03T11:46:57.913Z,13540
2017-11-03T11:47:57.973Z,13080
2017-11-03T11:48:57.936Z,12392
2017-11-03T11:49:57.641Z,12956
2017-11-03T11:50:57.344Z,16960
2017-11-03T11:51:57.692Z,14924
2017-11-03T11:52:57.711Z,13936
2017-11-03T11:53:57.738Z,14216
2017-11-03T11:54:58.082Z,14376
2017-11-03T11:55:57.464Z,16160
2017-11-03T11:56:57.809Z,17408
2017-11-03T11:57:57.513Z,15600
2017-11-03T11:58:58.177Z,15116
2017-11-03T11:59:58.204Z,16608
2017-11-03T12:00:58.234Z,17760
2017-11-03T12:01:58.270Z,18752
2017-11-03T12:02:58.280Z,60480
2017-11-03T12:03:57.988Z,39904
2017-11-03T12:04:58.327Z,21568
2017-11-03T12:05:58.078Z,18912
2017-11-03T12:06:58.376Z,18368
2017-11-03T12:07:58.076Z,18016
2017-11-03T12:08:58.107Z,17312
2017-11-03T12:09:58.133Z,16256
2017-11-03T12:10:58.157Z,16064
2017-11-03T12:11:58.186Z,16064
2017-11-03T12:12:58.207Z,16064
2017-11-03T12:13:58.883Z,17408
2017-11-03T12:14:58.900Z,19936
2017-11-03T12:15:58.288Z,24736
2017-11-03T12:16:58.309Z,21120
2017-11-03T12:17:58.660Z,20128
2017-11-03T12:18:58.381Z,19648
2017-11-03T12:19:58.722Z,19648
2017-11-03T12:20:58.733Z,17248
2017-11-03T12:21:58.760Z,15936
2017-11-03T12:22:58.468Z,14472
2017-11-03T12:23:58.487Z,13744
2017-11-03T12:24:58.837Z,12972
2017-11-03T12:25:58.872Z,12524
2017-11-03T12:26:58.559Z,12464
2017-11-03T12:27:58.259Z,12136
2017-11-03T12:28:58.940Z,11948
2017-11-03T12:29:58.965Z,12244
2017-11-03T12:30:59.316Z,12788
2017-11-03T12:31:58.687Z,13796
2017-11-03T12:32:59.040Z,14348
2017-11-03T12:33:59.063Z,14136
2017-11-03T12:34:59.406Z,13280
2017-11-03T12:35:58.789Z,12208
2017-11-03T12:36:58.816Z,11504
2017-11-03T12:37:58.537Z,11216
2017-11-03T12:38:59.190Z,11336
2017-11-03T12:39:59.541Z,12516
2017-11-03T12:40:59.316Z,12024
2017-11-03T12:41:58.995Z,11528
2017-11-03T12:42:58.963Z,11008
2017-11-03T12:43:58.998Z,10492
2017-11-03T12:44:59.343Z,10036
2017-11-03T12:45:59.066Z,9848
2017-11-03T12:46:59.073Z,9768
2017-11-03T12:47:59.110Z,9472
2017-11-03T12:48:59.765Z,8836
2017-11-03T12:49:59.144Z,8352
2017-11-03T12:50:59.494Z,8228
2017-11-03T12:51:58.890Z,8340
2017-11-03T12:52:59.237Z,8396
2017-11-03T12:53:59.248Z,8548
2017-11-03T12:54:59.271Z,8872
2017-11-03T12:55:59.631Z,9116
2017-11-03T12:56:59.322Z,9336
2017-11-03T12:57:59.374Z,9588
2017-11-03T12:58:59.103Z,9876
2017-11-03T12:59:59.407Z,10488
2017-11-03T13:00:59.742Z,11760
2017-11-03T13:02:00.104Z,11768
2017-11-03T13:03:00.135Z,11724
2017-11-03T13:03:59.818Z,11548
2017-11-03T13:05:00.184Z,11204
2017-11-03T13:05:59.869Z,11460
2017-11-03T13:06:59.568Z,11752
2017-11-03T13:07:59.918Z,12076
2017-11-03T13:08:59.609Z,13688
2017-11-03T13:10:00.292Z,15324
2017-11-03T13:10:59.984Z,61312
2017-11-03T13:11:59.696Z,68416
2017-11-03T13:13:00.364Z,71296
2017-11-03T13:14:00.393Z,74208
2017-11-03T13:15:00.404Z,75616
2017-11-03T13:16:00.124Z,74656
2017-11-03T13:17:00.132Z,68192
2017-11-03T13:18:00.556Z,62624
2017-11-03T13:19:00.547Z,53888
2017-11-03T13:20:00.535Z,34912
2017-11-03T13:21:00.255Z,18432
2017-11-03T13:22:00.277Z,14684
2017-11-03T13:23:00.302Z,13476
2017-11-03T13:24:00.335Z,12364
2017-11-03T13:25:00.357Z,11188
2017-11-03T13:26:00.700Z,11556
2017-11-03T13:27:00.418Z,16040
2017-11-03T13:27:59.797Z,15852
2017-11-03T13:29:00.148Z,59840
2017-11-03T13:30:00.829Z,67008
2017-11-03T13:31:00.538Z,70336
2017-11-03T13:32:00.548Z,18688
2017-11-03T13:32:59.985Z,16060
2017-11-03T13:34:00.289Z,55680
2017-11-03T13:35:00.664Z,57888
2017-11-03T13:36:00.341Z,13276
2017-11-03T13:37:00.681Z,12920
2017-11-03T13:38:01.058Z,11428
2017-11-03T13:39:00.747Z,10476
2017-11-03T13:40:01.094Z,10464
2017-11-03T13:41:00.158Z,51936
2017-11-03T13:42:00.501Z,10412
2017-11-03T13:43:00.527Z,11708
2017-11-03T13:44:00.881Z,31968
2017-11-03T13:45:00.905Z,22112
2017-11-03T13:46:00.942Z,9520
2017-11-03T13:47:00.965Z,8824
2017-11-03T13:48:00.680Z,14500
2017-11-03T13:49:01.343Z,8604
2017-11-03T13:50:01.042Z,8140
2017-11-03T13:51:00.824Z,6892
2017-11-03T13:52:01.127Z,6596
2017-11-03T13:53:01.131Z,6600
2017-11-03T13:54:00.818Z,6664